Time;durP1;ratioP1;P1;durP2;ratioP2;P2;SDS_P1;SDS_P2;PMS_P1;PMS_P2;Temp;Humidity;BMP_temperature;BMP_pressure;BME280_temperature;BME280_humidity;BME280_pressure;Samples;Min_cycle;Max_cycle;Signal;HPM_P1;HPM_P2
2021/10/25 00:00:09;;;;;;;13.77;6.50;;;;;;;5.67;64.54;103062.22;6121930;23;20153;-66
2021/10/25 00:02:34;;;;;;;13.40;7.30;;;;;;;5.64;65.27;103051.91;6121792;23;20236;-66
2021/10/25 00:05:00;;;;;;;11.90;7.20;;;;;;;5.57;64.88;103049.72;6122551;23;20175;-66
2021/10/25 00:07:25;;;;;;;10.37;6.27;;;;;;;5.57;64.69;103046.97;6122359;23;20190;-66
2021/10/25 00:09:51;;;;;;;14.40;6.90;;;;;;;4.77;64.41;102928.63;6121355;23;20606;-66
2021/10/25 00:12:16;;;;;;;14.80;7.60;;;;;;;5.44;65.50;103042.56;6122624;23;20161;-66
2021/10/25 00:14:42;;;;;;;12.13;7.60;;;;;;;5.39;65.81;103036.47;6122664;23;20506;-66
2021/10/25 00:17:07;;;;;;;12.70;6.87;;;;;;;5.33;65.37;103035.88;6121746;23;20159;-63
2021/10/25 00:19:34;;;;;;;15.20;6.90;;;;;;;4.75;65.56;102958.34;6121733;23;20152;-64
2021/10/25 00:21:59;;;;;;;8.97;6.73;;;;;;;5.00;65.80;103006.78;6121562;23;20181;-64
2021/10/25 00:24:25;;;;;;;12.20;6.70;;;;;;;5.12;65.39;103031.59;6122427;23;20161;-64
2021/10/25 00:26:50;;;;;;;11.30;6.80;;;;;;;5.24;65.80;103043.41;6122237;23;20160;-64
2021/10/25 00:29:16;;;;;;;17.03;6.70;;;;;;;5.17;65.94;103023.91;6122192;23;20161;-64
2021/10/25 00:31:42;;;;;;;9.83;6.77;;;;;;;5.25;66.32;103038.72;6121326;23;20271;-64
2021/10/25 00:34:08;;;;;;;10.27;6.27;;;;;;;4.87;65.87;102988.66;6122303;23;20174;-64
2021/10/25 00:36:33;;;;;;;9.17;6.50;;;;;;;5.16;65.83;103038.00;6121926;23;20162;-64
2021/10/25 00:39:00;;;;;;;10.77;6.70;;;;;;;5.14;66.39;103032.03;6121355;23;20155;-64
2021/10/25 00:41:25;;;;;;;13.40;6.60;;;;;;;4.67;66.69;102959.25;6121746;23;20411;-65
2021/10/25 00:43:51;;;;;;;11.63;5.87;;;;;;;5.15;66.87;103031.69;6122271;23;20415;-64
2021/10/25 00:46:16;;;;;;;10.50;6.07;;;;;;;4.71;66.88;102954.66;6121811;23;20197;-64
2021/10/25 00:48:42;;;;;;;13.57;6.60;;;;;;;4.83;67.99;102983.00;6121136;23;20157;-64
2021/10/25 00:51:12;;;;;;;11.70;6.50;;;;;;;5.03;68.72;103041.84;6121459;23;20273;-64
2021/10/25 00:53:39;;;;;;;12.93;6.73;;;;;;;5.06;68.16;103041.97;6122018;23;20159;-64
2021/10/25 00:56:05;;;;;;;10.77;6.60;;;;;;;5.03;68.78;103036.34;6095906;23;20170;-64
2021/10/25 00:58:31;;;;;;;10.60;6.27;;;;;;;4.15;68.93;102911.38;6120935;23;20160;-65
2021/10/25 01:00:58;;;;;;;10.43;6.40;;;;;;;4.87;69.93;103035.34;6120990;23;20153;-65
2021/10/25 01:03:23;;;;;;;10.23;6.37;;;;;;;4.87;70.29;103038.88;6122347;23;20154;-65
2021/10/25 01:05:49;;;;;;;13.77;6.20;;;;;;;4.87;69.83;103040.84;6121508;23;20573;-65
2021/10/25 01:08:15;;;;;;;13.13;6.60;;;;;;;4.83;70.09;103042.66;6120727;23;20161;-65
2021/10/25 01:10:41;;;;;;;14.20;6.80;;;;;;;4.90;69.63;103046.47;6121182;23;20571;-65
2021/10/25 01:13:08;;;;;;;15.37;6.97;;;;;;;4.98;69.31;103051.06;6095381;23;20603;-65
2021/10/25 01:15:33;;;;;;;13.87;7.00;;;;;;;4.98;69.49;103053.03;6121629;23;20152;-65
2021/10/25 01:17:59;;;;;;;13.37;7.30;;;;;;;4.41;70.12;103000.63;6120789;23;20214;-65
2021/10/25 01:20:27;;;;;;;11.73;7.30;;;;;;;4.95;70.99;103053.69;6121019;23;20152;-65
2021/10/25 01:22:53;;;;;;;13.33;6.57;;;;;;;5.04;70.08;103049.75;6121623;23;20163;-65
2021/10/25 01:25:21;;;;;;;14.37;6.53;;;;;;;5.11;69.58;103058.25;6121764;23;20160;-65
2021/10/25 01:27:46;;;;;;;17.93;7.33;;;;;;;4.55;69.94;102981.13;6120919;23;20603;-65
2021/10/25 01:30:12;;;;;;;18.43;7.50;;;;;;;5.15;70.26;103042.69;6120828;23;20181;-65
2021/10/25 01:32:38;;;;;;;15.50;7.67;;;;;;;5.19;69.06;103043.59;6121489;23;20199;-65
2021/10/25 01:35:05;;;;;;;17.40;7.03;;;;;;;5.21;69.06;103035.03;6121305;23;20626;-65
2021/10/25 01:37:30;;;;;;;12.77;6.70;;;;;;;5.13;69.21;103033.97;6121371;23;20154;-65
2021/10/25 01:39:56;;;;;;;10.60;6.23;;;;;;;5.22;68.50;103042.13;6120468;23;20164;-65
2021/10/25 01:42:22;;;;;;;20.73;7.57;;;;;;;5.25;68.16;103041.47;6121589;23;20232;-65
2021/10/25 01:44:48;;;;;;;15.50;7.20;;;;;;;5.07;68.73;103018.84;6095589;23;20187;-65
2021/10/25 01:47:14;;;;;;;12.50;6.63;;;;;;;5.29;68.14;103048.69;6121069;23;20222;-65
2021/10/25 01:49:39;;;;;;;12.17;5.83;;;;;;;5.21;66.31;103040.53;6120716;23;20645;-64
2021/10/25 01:52:06;;;;;;;15.80;6.90;;;;;;;5.18;65.59;103058.50;6120855;23;20191;-65
2021/10/25 01:54:32;;;;;;;10.60;6.03;;;;;;;5.00;65.51;103037.00;6121505;23;20160;-65
2021/10/25 01:56:58;;;;;;;12.40;6.50;;;;;;;5.07;65.91;103056.53;6121354;23;20149;-65
2021/10/25 01:59:23;;;;;;;15.70;6.13;;;;;;;5.04;66.34;103058.00;6120727;23;20152;-65
2021/10/25 02:01:49;;;;;;;12.83;5.87;;;;;;;4.82;65.57;103030.06;6120742;23;20166;-64
2021/10/25 02:04:14;;;;;;;12.00;8.00;;;;;;;4.49;68.79;102996.22;6121219;23;20182;-64
2021/10/25 02:06:40;;;;;;;11.50;7.60;;;;;;;4.93;69.40;103065.03;6121179;23;20188;-64
2021/10/25 02:09:06;;;;;;;23.97;9.83;;;;;;;4.85;69.27;103046.66;6120737;23;20639;-64
2021/10/25 02:11:32;;;;;;;13.47;7.63;;;;;;;4.68;69.23;103027.59;6120680;23;20184;-64
2021/10/25 02:13:58;;;;;;;19.70;8.63;;;;;;;4.64;68.98;103001.91;6121326;23;20150;-64
2021/10/25 02:16:23;;;;;;;23.90;8.40;;;;;;;4.96;68.11;103052.56;6121205;23;20574;-65
2021/10/25 02:18:49;;;;;;;13.50;7.33;;;;;;;5.04;67.48;103063.50;6120311;23;20161;-65
2021/10/25 02:21:15;;;;;;;14.30;7.10;;;;;;;5.02;67.22;103060.25;6120515;23;20151;-65
2021/10/25 02:23:41;;;;;;;10.07;6.60;;;;;;;5.02;66.97;103065.75;6121382;23;20589;-65
2021/10/25 02:26:07;;;;;;;12.93;8.07;;;;;;;4.89;69.22;103044.06;6120914;23;20414;-65
2021/10/25 02:28:33;;;;;;;12.03;6.90;;;;;;;5.03;68.57;103063.81;6120704;23;20750;-65
2021/10/25 02:30:59;;;;;;;14.30;6.97;;;;;;;5.03;67.37;103069.31;6120682;23;20557;-64
2021/10/25 02:33:24;;;;;;;11.27;7.33;;;;;;;4.45;67.20;102990.59;6121146;23;20195;-65
2021/10/25 02:35:51;;;;;;;12.60;7.40;;;;;;;5.00;67.38;103069.97;6121041;23;20523;-65
2021/10/25 02:38:18;;;;;;;17.20;8.10;;;;;;;5.03;68.54;103080.31;6120171;23;20190;-65
2021/10/25 02:40:43;;;;;;;11.70;8.07;;;;;;;4.98;68.29;103075.03;6120619;23;20458;-64
2021/10/25 02:43:09;;;;;;;14.17;8.30;;;;;;;4.56;68.55;103016.50;6095138;23;20438;-65
2021/10/25 02:45:35;;;;;;;15.17;9.33;;;;;;;4.99;69.19;103082.13;6121104;23;20155;-64
2021/10/25 02:48:01;;;;;;;26.97;9.33;;;;;;;4.98;68.91;103078.56;6120181;23;20538;-65
2021/10/25 02:50:27;;;;;;;21.27;7.57;;;;;;;4.66;68.50;103051.03;6120422;23;20180;-65
2021/10/25 02:52:54;;;;;;;13.87;7.63;;;;;;;4.83;67.18;103087.41;6121179;23;20614;-65
2021/10/25 02:55:19;;;;;;;13.33;7.33;;;;;;;4.76;67.34;103069.84;6094739;23;20248;-65
2021/10/25 02:57:45;;;;;;;10.63;7.10;;;;;;;4.93;66.75;103086.22;6120518;23;20622;-65
2021/10/25 03:00:14;;;;;;;12.37;6.97;;;;;;;4.93;66.99;103091.72;6119898;23;20617;-64
2021/10/25 03:02:40;;;;;;;24.87;8.87;;;;;;;4.77;67.31;103077.75;6121147;23;20163;-64
2021/10/25 03:05:06;;;;;;;15.73;8.27;;;;;;;4.88;67.09;103092.69;6120895;23;20162;-65
2021/10/25 03:07:32;;;;;;;17.00;7.30;;;;;;;4.78;66.92;103078.56;6120584;23;20159;-65
2021/10/25 03:09:58;;;;;;;19.67;8.17;;;;;;;4.63;66.85;103082.72;6120050;23;20262;-64
2021/10/25 03:12:23;;;;;;;35.43;9.10;;;;;;;4.47;66.85;103056.94;6120925;23;20158;-64
2021/10/25 03:14:49;;;;;;;14.67;9.33;;;;;;;4.62;68.42;103099.53;6121179;23;20156;-64
2021/10/25 03:17:15;;;;;;;11.77;8.97;;;;;;;4.55;69.73;103104.72;6120192;23;20162;-64
2021/10/25 03:19:41;;;;;;;13.73;9.10;;;;;;;4.46;70.08;103099.28;6121232;23;20150;-65
2021/10/25 03:22:06;;;;;;;16.17;9.43;;;;;;;4.21;70.07;103061.78;6094263;23;20168;-65
2021/10/25 03:24:34;;;;;;;15.33;9.70;;;;;;;4.20;71.34;103095.84;6120603;23;20892;-64
2021/10/25 03:27:00;;;;;;;12.80;9.07;;;;;;;4.14;71.56;103108.16;6120898;23;20229;-64
2021/10/25 03:29:26;;;;;;;14.73;9.43;;;;;;;4.08;71.36;103114.16;6120143;23;20147;-64
2021/10/25 03:31:51;;;;;;;14.23;8.90;;;;;;;4.11;71.97;103108.81;6120103;23;20206;-63
2021/10/25 03:34:18;;;;;;;17.77;9.70;;;;;;;4.18;71.12;103117.34;6120912;23;20153;-65
2021/10/25 03:36:45;;;;;;;14.63;8.53;;;;;;;4.24;71.15;103115.22;6121448;23;20158;-63
2021/10/25 03:39:11;;;;;;;16.90;9.47;;;;;;;3.86;71.32;103054.81;6121806;23;20609;-64
2021/10/25 03:41:40;;;;;;;15.60;8.53;;;;;;;4.34;70.71;103118.41;6096173;23;20159;-64
2021/10/25 03:44:12;;;;;;;12.63;7.80;;;;;;;4.30;70.41;103120.19;6122446;23;20642;-64
2021/10/25 03:51:32;;;;;;;13.37;8.23;;;;;;;4.23;70.75;103114.41;6121943;23;20190;-65
2021/10/25 04:02:18;;;;;;;11.47;8.13;;;;;;;4.12;71.56;103104.13;6121712;23;20179;-64
2021/10/25 04:13:36;;;;;;;18.63;10.73;;;;;;;4.09;72.94;103111.09;6122724;23;20266;-64
2021/10/25 04:29:35;;;;;;;20.23;13.37;;;;;;;3.55;73.45;103026.06;6067709;23;20195;-66
2021/10/25 04:32:06;;;;;;;22.73;12.93;;;;;;;4.19;74.03;103113.47;6094999;23;20606;-64
2021/10/25 04:34:33;;;;;;;23.57;15.40;;;;;;;4.25;73.33;103106.66;6122392;23;20578;-64
2021/10/25 04:36:58;;;;;;;25.23;15.67;;;;;;;4.15;73.01;103090.56;6121909;23;20198;-64
2021/10/25 04:39:23;;;;;;;25.60;16.00;;;;;;;4.25;74.09;103106.66;6121514;23;20554;-64
2021/10/25 04:41:49;;;;;;;27.27;16.33;;;;;;;4.15;73.65;103095.25;6121346;23;20159;-64
2021/10/25 04:44:15;;;;;;;22.90;15.53;;;;;;;4.27;73.42;103107.13;6121923;23;20189;-64
2021/10/25 04:46:40;;;;;;;22.03;14.90;;;;;;;3.84;73.58;103032.41;6122226;23;20158;-64
2021/10/25 04:49:06;;;;;;;26.80;15.87;;;;;;;4.24;72.92;103093.25;6119721;23;20160;-64
2021/10/25 04:51:34;;;;;;;24.03;16.47;;;;;;;4.34;73.07;103093.69;6113697;23;20565;-64
2021/10/25 04:54:01;;;;;;;26.87;18.30;;;;;;;3.92;73.43;103042.56;6117223;23;20208;-64
2021/10/25 04:56:26;;;;;;;27.83;18.00;;;;;;;4.21;72.77;103086.47;6119761;23;20155;-64
2021/10/25 04:58:52;;;;;;;28.80;18.33;;;;;;;4.13;73.99;103065.38;6117094;23;20523;-64
2021/10/25 05:01:17;;;;;;;27.37;19.17;;;;;;;4.45;73.58;103111.41;6111231;23;20152;-64
2021/10/25 05:03:43;;;;;;;26.27;17.43;;;;;;;4.58;72.76;103123.28;6111078;23;20603;-63
2021/10/25 05:06:15;;;;;;;33.83;18.90;;;;;;;4.12;73.24;103066.53;6099822;23;20206;-63
2021/10/25 05:08:41;;;;;;;31.23;18.73;;;;;;;4.46;73.26;103107.50;6089502;23;20604;-63
2021/10/25 05:11:07;;;;;;;28.10;17.03;;;;;;;4.65;72.02;103134.53;6115885;23;20185;-64
2021/10/25 05:13:32;;;;;;;27.03;17.27;;;;;;;4.63;71.72;103126.66;6117586;23;20249;-63
2021/10/25 05:15:58;;;;;;;27.40;18.30;;;;;;;4.63;71.56;103134.09;6112952;23;20271;-64
2021/10/25 05:18:23;;;;;;;31.27;22.17;;;;;;;4.46;72.40;103118.50;6118303;23;20156;-63
2021/10/25 05:20:49;;;;;;;40.33;27.20;;;;;;;4.61;71.69;103145.41;6113333;23;20605;-63
2021/10/25 05:23:14;;;;;;;37.60;25.50;;;;;;;4.53;71.66;103154.50;6090980;23;20166;-63
2021/10/25 05:25:41;;;;;;;43.30;24.93;;;;;;;4.38;71.84;103154.25;6115833;23;20177;-64
2021/10/25 05:28:07;;;;;;;29.27;18.07;;;;;;;4.53;72.67;103150.94;6118533;23;20597;-63
2021/10/25 05:30:32;;;;;;;30.23;16.27;;;;;;;4.60;70.49;103151.22;6091218;23;20222;-63
2021/10/25 05:32:58;;;;;;;29.27;18.37;;;;;;;4.48;70.77;103151.94;6114460;23;20221;-63
2021/10/25 05:35:24;;;;;;;40.60;20.37;;;;;;;4.39;71.83;103153.91;6092987;23;20165;-62
2021/10/25 05:37:50;;;;;;;34.43;18.90;;;;;;;4.39;71.49;103153.09;6117128;23;20213;-63
2021/10/25 05:40:16;;;;;;;38.20;20.17;;;;;;;3.99;71.65;103110.63;6117021;23;20641;-63
2021/10/25 05:42:41;;;;;;;34.83;20.23;;;;;;;4.23;71.91;103155.59;6119417;23;20211;-64
2021/10/25 05:45:07;;;;;;;33.47;20.90;;;;;;;4.35;71.58;103174.91;6115656;23;20179;-64
2021/10/25 05:47:33;;;;;;;49.60;25.63;;;;;;;4.45;72.81;103171.81;6119075;23;20167;-64
2021/10/25 05:49:59;;;;;;;73.43;32.37;;;;;;;4.43;72.07;103176.84;6118558;23;20555;-64
2021/10/25 05:52:25;;;;;;;66.53;31.20;;;;;;;4.25;72.16;103147.03;6118327;23;20613;-65
2021/10/25 05:54:52;;;;;;;54.97;29.77;;;;;;;4.47;71.89;103166.00;6119404;23;20162;-64
2021/10/25 05:57:18;;;;;;;55.23;29.83;;;;;;;4.53;71.92;103172.91;6117969;23;20257;-64
2021/10/25 05:59:45;;;;;;;58.70;30.10;;;;;;;4.53;72.15;103145.44;6118249;23;20592;-64
2021/10/25 06:04:45;;;;;;;51.40;31.40;;;;;;;4.58;71.93;103123.28;6119464;23;20213;-63
2021/10/25 06:07:11;;;;;;;51.60;31.10;;;;;;;4.71;71.32;103128.53;6118873;23;20155;-65
2021/10/25 06:09:36;;;;;;;55.63;32.33;;;;;;;5.08;71.15;103190.06;6090984;23;20172;-64
2021/10/25 06:12:07;;;;;;;46.57;31.03;;;;;;;5.09;71.78;103191.66;6117165;23;20190;-65
2021/10/25 06:14:37;;;;;;;53.53;33.27;;;;;;;4.73;71.82;103129.00;6118212;23;20513;-65
2021/10/25 06:17:14;;;;;;;55.73;38.43;;;;;;;4.87;71.98;103154.28;6116129;23;20503;-65
2021/10/25 06:19:39;;;;;;;64.20;39.53;;;;;;;5.15;72.03;103204.06;6117026;23;20277;-63
2021/10/25 06:22:05;;;;;;;67.17;40.27;;;;;;;5.27;72.13;103204.13;6115283;23;20159;-64
2021/10/25 06:24:30;;;;;;;55.03;34.53;;;;;;;5.15;72.92;103182.06;6118857;23;20166;-64
2021/10/25 06:26:56;;;;;;;48.40;31.33;;;;;;;5.36;73.94;103202.97;6118095;23;20168;-67
2021/10/25 06:29:21;;;;;;;50.47;31.93;;;;;;;5.33;73.11;103205.56;6117018;23;20163;-66
2021/10/25 06:31:47;;;;;;;44.20;28.47;;;;;;;5.50;72.66;103202.69;6117984;23;20293;-66
2021/10/25 06:34:20;;;;;;;44.47;28.13;;;;;;;5.45;71.93;103158.88;6118319;23;20146;-66
2021/10/25 06:36:50;;;;;;;39.07;25.80;;;;;;;5.82;71.34;103202.75;6092660;23;20175;-66
2021/10/25 06:39:22;;;;;;;40.57;24.90;;;;;;;6.04;71.27;103198.78;6092689;23;20596;-66
2021/10/25 06:41:47;;;;;;;34.77;23.43;;;;;;;6.08;70.67;103189.53;6116448;23;20535;-66
2021/10/25 06:44:12;;;;;;;37.07;22.70;;;;;;;6.10;71.40;103191.97;6117428;23;20164;-66
2021/10/25 06:46:42;;;;;;;35.30;22.17;;;;;;;5.80;71.56;103130.72;6119142;23;20163;-66
2021/10/25 06:49:08;;;;;;;34.67;21.27;;;;;;;6.46;73.42;103192.81;6118262;23;20538;-66
2021/10/25 06:51:34;;;;;;;34.73;20.60;;;;;;;6.51;71.66;103178.03;6118514;23;20292;-66
2021/10/25 06:54:00;;;;;;;32.90;19.80;;;;;;;6.80;71.86;103202.59;6115978;23;20229;-66
2021/10/25 06:56:26;;;;;;;29.40;20.33;;;;;;;6.68;71.14;103162.06;6118242;23;20268;-66
2021/10/25 06:58:52;;;;;;;33.77;19.87;;;;;;;7.12;70.64;103201.66;6117271;23;20636;-66
2021/10/25 07:01:18;;;;;;;28.23;18.73;;;;;;;7.33;70.55;103205.84;6115669;23;20178;-66
2021/10/25 07:03:45;;;;;;;26.87;18.23;;;;;;;7.45;69.80;103203.09;6118340;23;20164;-66
2021/10/25 07:06:15;;;;;;;28.27;18.00;;;;;;;7.42;69.95;103170.66;6118767;23;20185;-65
2021/10/25 07:08:41;;;;;;;26.60;17.10;;;;;;;7.58;69.01;103170.75;6118490;23;20240;-66
2021/10/25 07:11:06;;;;;;;29.10;16.87;;;;;;;8.03;68.10;103213.44;6119095;23;20621;-66
2021/10/25 07:13:32;;;;;;;27.90;17.13;;;;;;;8.06;67.13;103184.31;6119609;23;20155;-64
2021/10/25 07:16:10;;;;;;;27.47;17.07;;;;;;;8.38;67.00;103206.13;6114631;23;20228;-64
2021/10/25 07:18:45;;;;;;;26.53;16.40;;;;;;;8.53;66.81;103204.53;6115862;23;20147;-67
2021/10/25 07:23:59;;;;;;;19.00;13.03;;;;;;;8.46;66.13;103188.56;6117647;23;20163;-64
2021/10/25 08:04:35;;;;;;;15.57;9.60;;;;;;;10.33;61.60;103188.72;6119961;23;20169;-67
2021/10/25 08:12:18;;;;;;;11.23;8.77;;;;;;;10.62;60.74;103190.81;6117343;23;20183;-67
2021/10/25 08:14:51;;;;;;;13.80;9.60;;;;;;;10.60;61.26;103196.72;6119149;23;20189;-67
2021/10/25 08:17:21;;;;;;;17.93;9.50;;;;;;;10.82;60.75;103195.09;6116854;23;20591;-68
2021/10/25 08:19:48;;;;;;;13.57;9.23;;;;;;;10.90;60.51;103174.59;6119142;23;20219;-67
2021/10/25 08:22:16;;;;;;;13.17;9.17;;;;;;;11.17;60.03;103185.31;6118501;23;20301;-67
2021/10/25 08:24:47;;;;;;;13.13;9.60;;;;;;;11.33;60.00;103197.06;6119271;23;20178;-67
2021/10/25 08:27:14;;;;;;;15.00;9.90;;;;;;;11.48;58.88;103190.50;6118786;23;20139;-68
2021/10/25 08:29:40;;;;;;;12.87;9.40;;;;;;;11.46;58.96;103192.06;6116025;23;20149;-68
2021/10/25 08:33:02;;;;;;;14.90;10.03;;;;;;;11.48;58.22;103198.84;6117555;23;20198;-66
2021/10/25 08:40:00;;;;;;;14.93;10.27;;;;;;;11.39;58.01;103158.66;6117654;23;20534;-67
2021/10/25 08:42:32;;;;;;;14.53;10.00;;;;;;;11.47;57.43;103161.16;6109160;23;20141;-68
2021/10/25 08:45:13;;;;;;;14.17;10.20;;;;;;;11.85;56.87;103185.88;6083194;23;20435;-65
2021/10/25 08:47:43;;;;;;;15.83;10.37;;;;;;;11.72;57.16;103162.28;6116469;23;20152;-66
2021/10/25 08:50:12;;;;;;;14.13;10.23;;;;;;;11.92;56.99;103174.81;6091397;23;21096;-65
2021/10/25 08:52:38;;;;;;;13.83;10.00;;;;;;;11.96;57.02;103170.09;6119317;23;20376;-66
2021/10/25 08:55:06;;;;;;;13.83;10.83;;;;;;;11.87;57.55;103183.50;6118726;23;20372;-66
2021/10/25 08:57:34;;;;;;;14.87;10.50;;;;;;;11.94;56.99;103182.78;6117984;23;20213;-67
2021/10/25 09:00:12;;;;;;;15.40;10.50;;;;;;;11.67;56.98;103176.50;6117587;23;20181;-67
2021/10/25 09:02:42;;;;;;;12.67;10.23;;;;;;;11.49;57.67;103155.22;6114251;23;20158;-67
2021/10/25 09:05:15;;;;;;;16.13;11.23;;;;;;;11.62;57.89;103168.50;6118899;23;20507;-67
2021/10/25 09:08:10;;;;;;;15.63;11.10;;;;;;;11.61;58.13;103174.44;6117854;23;20195;-68
2021/10/25 09:10:55;;;;;;;4.60;2.70;;;;;;;11.54;57.78;103135.44;6115265;23;20158;-68
2021/10/25 09:13:24;;;;;;;14.40;10.37;;;;;;;11.86;57.28;103172.75;6119875;23;20219;-69
2021/10/25 09:16:17;;;;;;;14.93;10.73;;;;;;;11.89;57.52;103174.78;6111126;23;20409;-68
2021/10/25 09:18:43;;;;;;;15.40;10.07;;;;;;;11.97;57.40;103174.47;6110327;23;20231;-68
2021/10/25 09:21:13;;;;;;;13.73;10.60;;;;;;;11.74;57.26;103175.81;6112566;23;20150;-68
2021/10/25 09:23:46;;;;;;;13.13;9.90;;;;;;;11.75;57.85;103177.41;6116158;23;20530;-69
2021/10/25 09:26:16;;;;;;;14.50;10.97;;;;;;;11.69;58.00;103167.81;6114219;23;20606;-69
2021/10/25 09:28:54;;;;;;;14.00;10.03;;;;;;;11.83;57.91;103162.41;6116963;23;20161;-69
2021/10/25 09:31:26;;;;;;;17.23;10.60;;;;;;;11.86;58.06;103158.84;6119017;23;20188;-70
2021/10/25 09:34:00;;;;;;;13.00;10.03;;;;;;;11.88;57.82;103153.75;6092054;23;20169;-69
2021/10/25 09:36:32;;;;;;;12.90;9.70;;;;;;;12.08;57.65;103155.13;6089800;23;20195;-70
2021/10/25 09:39:04;;;;;;;13.83;10.47;;;;;;;12.10;57.45;103153.56;6117848;23;20161;-69
2021/10/25 09:49:58;;;;;;;17.13;11.77;;;;;;;12.26;57.21;103090.19;6113832;23;20180;-65
2021/10/25 09:52:29;;;;;;;16.30;12.93;;;;;;;12.47;57.47;103122.91;6113278;23;20443;-68
2021/10/25 09:55:00;;;;;;;19.97;13.80;;;;;;;12.56;57.19;103124.16;6115168;23;20600;-68
2021/10/25 09:57:37;;;;;;;16.37;12.20;;;;;;;12.76;57.02;103128.28;6117267;23;20157;-68
2021/10/25 10:00:04;;;;;;;15.03;11.97;;;;;;;12.81;56.59;103122.34;6117765;23;20191;-68
2021/10/25 10:02:31;;;;;;;16.60;12.30;;;;;;;12.90;56.45;103111.69;6116871;23;20161;-69
2021/10/25 10:05:01;;;;;;;15.33;11.80;;;;;;;13.09;55.61;103105.88;6122402;23;20154;-69
2021/10/25 10:07:27;;;;;;;17.43;12.00;;;;;;;13.01;55.50;103095.88;6119970;23;20659;-66
2021/10/25 10:09:53;;;;;;;16.53;12.20;;;;;;;13.22;55.55;103101.53;6118306;23;20176;-68
2021/10/25 10:12:21;;;;;;;15.77;12.03;;;;;;;13.31;55.54;103088.06;6119371;23;20156;-68
2021/10/25 10:14:49;;;;;;;17.63;11.77;;;;;;;13.41;55.83;103089.28;6116202;23;20149;-68
2021/10/25 10:17:29;;;;;;;15.77;11.83;;;;;;;13.46;54.95;103089.72;6118968;23;20154;-67
2021/10/25 10:19:59;;;;;;;15.53;11.10;;;;;;;13.51;55.15;103080.97;6091274;23;20149;-68
2021/10/25 10:22:28;;;;;;;14.07;10.87;;;;;;;13.66;55.44;103085.41;6118866;23;20158;-67
2021/10/25 10:24:55;;;;;;;14.60;11.27;;;;;;;13.56;54.99;103052.72;6119576;23;20159;-67
2021/10/25 10:27:23;;;;;;;14.20;10.90;;;;;;;13.78;54.50;103073.09;6117430;23;20161;-68
2021/10/25 10:29:59;;;;;;;14.77;10.97;;;;;;;13.87;54.45;103065.91;6117556;23;20362;-67
2021/10/25 10:32:31;;;;;;;14.97;10.93;;;;;;;14.01;54.21;103065.94;6118612;23;20201;-67
2021/10/25 10:35:02;;;;;;;15.17;10.80;;;;;;;14.06;54.47;103068.34;6118822;23;20205;-68
2021/10/25 10:37:28;;;;;;;15.67;11.00;;;;;;;14.17;53.96;103051.59;6117114;23;20148;-68
2021/10/25 10:40:07;;;;;;;14.40;11.23;;;;;;;13.76;54.55;103047.56;6117074;23;20529;-67
2021/10/25 10:42:36;;;;;;;14.60;11.17;;;;;;;13.86;54.06;103022.50;6117312;23;20160;-67
2021/10/25 10:45:09;;;;;;;15.33;11.00;;;;;;;14.15;53.85;103043.63;6083661;23;20171;-67
2021/10/25 10:47:53;;;;;;;15.37;11.20;;;;;;;14.36;53.59;103048.44;6116181;23;20159;-67
2021/10/25 10:50:39;;;;;;;16.13;11.67;;;;;;;14.35;52.99;103032.91;6120249;23;20140;-65
2021/10/25 10:53:13;;;;;;;16.13;11.87;;;;;;;14.22;53.44;103040.88;6121396;23;20196;-66
2021/10/25 10:55:43;;;;;;;16.53;11.70;;;;;;;14.15;54.11;103032.47;6120490;23;20251;-66
2021/10/25 10:58:24;;;;;;;13.73;11.27;;;;;;;14.30;54.01;103031.28;6120671;23;20555;-68
2021/10/25 11:01:00;;;;;;;15.83;11.37;;;;;;;14.51;53.38;103027.69;6120347;23;20565;-66
2021/10/25 11:03:28;;;;;;;15.67;11.80;;;;;;;14.47;53.09;103024.91;6120555;23;20153;-65
2021/10/25 11:05:57;;;;;;;14.90;11.43;;;;;;;14.55;53.41;103017.31;6119569;23;20515;-66
2021/10/25 11:08:24;;;;;;;14.50;11.20;;;;;;;14.31;52.84;102957.59;6119908;23;20504;-64
2021/10/25 11:11:05;;;;;;;22.17;11.90;;;;;;;14.81;52.72;103014.03;6120269;23;20492;-66
2021/10/25 11:13:33;;;;;;;16.60;11.60;;;;;;;14.53;52.41;103009.34;6120790;23;20165;-65
2021/10/25 11:16:10;;;;;;;15.90;11.87;;;;;;;14.50;53.10;103000.97;6119354;23;20298;-64
2021/10/25 11:18:38;;;;;;;15.17;11.97;;;;;;;14.70;53.29;102997.31;6119794;23;20773;-65
2021/10/25 11:21:25;;;;;;;18.07;12.30;;;;;;;14.75;52.81;102990.53;6120080;23;20241;-64
2021/10/25 11:23:59;;;;;;;17.67;11.47;;;;;;;14.94;52.55;102987.25;6120734;23;20146;-64
2021/10/25 11:26:29;;;;;;;15.00;11.67;;;;;;;15.10;52.33;102973.59;6119738;23;20498;-65
2021/10/25 11:29:02;;;;;;;14.37;11.37;;;;;;;15.36;51.71;102979.47;6118936;23;20151;-68
2021/10/25 11:31:31;;;;;;;15.17;11.30;;;;;;;15.55;50.84;102975.34;6119966;23;20151;-68
2021/10/25 11:33:58;;;;;;;17.70;12.10;;;;;;;15.36;50.96;102948.75;6094687;23;20624;-69
2021/10/25 11:36:28;;;;;;;16.30;12.20;;;;;;;15.46;50.87;102964.66;6118953;23;20208;-70
2021/10/25 11:38:57;;;;;;;18.93;11.37;;;;;;;15.61;50.45;102959.72;6120035;23;20169;-69
2021/10/25 11:41:23;;;;;;;15.07;11.17;;;;;;;15.60;51.25;102946.97;6119601;23;20179;-70
2021/10/25 11:43:49;;;;;;;16.03;11.70;;;;;;;15.71;50.51;102959.66;6121319;23;20165;-69
2021/10/25 11:46:20;;;;;;;14.10;10.73;;;;;;;15.79;50.80;102938.03;6091642;23;20403;-70
2021/10/25 11:48:57;;;;;;;15.00;11.80;;;;;;;15.84;50.20;102952.34;6119746;23;20616;-69
2021/10/25 11:51:24;;;;;;;15.47;11.93;;;;;;;16.07;50.25;102946.16;6119956;23;20153;-69
2021/10/25 11:54:00;;;;;;;14.83;11.83;;;;;;;15.72;50.39;102938.09;6120459;23;20185;-70
2021/10/25 11:56:26;;;;;;;17.13;11.37;;;;;;;16.02;50.61;102930.63;6117176;23;20497;-69
2021/10/25 11:58:54;;;;;;;15.20;10.87;;;;;;;16.19;49.72;102928.84;6118670;23;20154;-69
2021/10/25 12:01:19;;;;;;;16.13;11.20;;;;;;;16.13;49.49;102922.13;6119202;23;20182;-70
2021/10/25 12:03:45;;;;;;;14.73;10.67;;;;;;;16.04;48.99;102877.06;6120140;23;20167;-68
2021/10/25 12:06:20;;;;;;;15.27;11.20;;;;;;;16.44;49.33;102924.59;6118649;23;20450;-68
2021/10/25 12:08:56;;;;;;;14.60;10.10;;;;;;;16.71;48.77;102913.47;6119434;23;20163;-68
2021/10/25 12:14:09;;;;;;;14.80;9.83;;;;;;;16.80;46.68;102864.13;6120489;23;20153;-68
2021/10/25 12:16:38;;;;;;;12.00;8.60;;;;;;;17.19;46.83;102886.78;6118597;23;20194;-65
2021/10/25 12:19:05;;;;;;;13.70;9.20;;;;;;;17.41;46.28;102892.06;6118964;23;20561;-65
2021/10/25 12:21:35;;;;;;;14.33;8.57;;;;;;;17.52;45.31;102888.66;6116693;23;20244;-66
2021/10/25 12:24:07;;;;;;;13.33;8.40;;;;;;;17.59;45.17;102882.13;6119184;23;20151;-66
2021/10/25 12:26:33;;;;;;;11.00;7.73;;;;;;;17.51;45.48;102841.41;6118371;23;20142;-66
2021/10/25 12:28:59;;;;;;;11.00;7.90;;;;;;;17.37;44.83;102884.47;6118261;23;20159;-68
2021/10/25 12:31:27;;;;;;;13.37;8.30;;;;;;;17.78;44.80;102870.19;6119151;23;20161;-64
2021/10/25 12:34:01;;;;;;;15.80;8.40;;;;;;;17.85;43.94;102850.41;6120641;23;20207;-68
2021/10/25 12:36:34;;;;;;;12.80;8.13;;;;;;;18.21;43.02;102875.78;6118083;23;20153;-66
2021/10/25 12:39:00;;;;;;;13.33;8.00;;;;;;;18.01;42.36;102813.25;6118784;23;20266;-65
2021/10/25 12:41:26;;;;;;;11.23;7.37;;;;;;;18.07;41.38;102854.38;6118852;23;20189;-65
2021/10/25 12:43:57;;;;;;;10.43;7.50;;;;;;;17.12;42.32;102727.16;6120066;23;20176;-65
2021/10/25 12:46:29;;;;;;;12.43;8.00;;;;;;;18.27;42.35;102854.41;6116285;23;20161;-65
2021/10/25 12:48:56;;;;;;;11.07;8.07;;;;;;;18.13;42.14;102856.28;6118870;23;20494;-65
2021/10/25 12:51:41;;;;;;;10.90;8.03;;;;;;;18.28;41.62;102851.97;6118871;23;20151;-64
2021/10/25 12:54:09;;;;;;;0.00;0.00;;;;;;;18.36;41.22;102835.78;6117492;23;20372;-64
2021/10/25 12:56:35;;;;;;;4.23;2.50;;;;;;;18.51;38.60;102844.69;6117966;23;20158;-64
2021/10/25 12:59:04;;;;;;;8.67;5.17;;;;;;;18.63;38.58;102841.25;6119048;23;20181;-64
2021/10/25 13:01:29;;;;;;;8.17;5.30;;;;;;;18.79;37.82;102832.84;6117436;23;20205;-64